createdAt,value
2022-11-03T00:01:46.327Z,5.69
2022-11-03T00:04:20.878Z,5.67
2022-11-03T00:06:52.620Z,5.67
2022-11-03T00:09:22.962Z,5.67
2022-11-03T00:11:52.500Z,5.57
2022-11-03T00:14:22.864Z,5.56
2022-11-03T00:16:51.990Z,5.52
2022-11-03T00:19:21.104Z,5.51
2022-11-03T00:21:53.554Z,5.43
2022-11-03T00:24:22.678Z,5.35
2022-11-03T00:26:53.026Z,5.34
2022-11-03T00:29:22.631Z,5.34
2022-11-03T00:31:51.623Z,5.34
2022-11-03T00:34:20.409Z,5.31
2022-11-03T00:36:52.632Z,5.32
2022-11-03T00:39:22.465Z,5.33
2022-11-03T00:41:50.704Z,5.29
2022-11-03T00:44:19.083Z,5.29
2022-11-03T00:46:47.235Z,5.29
2022-11-03T00:49:15.473Z,5.28
2022-11-03T00:51:44.859Z,5.28
2022-11-03T00:54:14.492Z,5.27
2022-11-03T00:56:47.244Z,5.23
2022-11-03T00:59:15.627Z,5.21
2022-11-03T01:01:47.538Z,5.18
2022-11-03T01:04:35.452Z,5.13
2022-11-03T01:07:06.023Z,5.10
2022-11-03T01:09:38.192Z,5.15
2022-11-03T01:12:08.647Z,5.13
2022-11-03T01:14:39.007Z,5.11
2022-11-03T01:17:08.576Z,5.09
2022-11-03T01:19:36.964Z,5.06
2022-11-03T01:22:07.933Z,5.03
2022-11-03T01:24:41.835Z,5.01
2022-11-03T01:27:13.154Z,5.03
2022-11-03T01:29:42.652Z,5.03
2022-11-03T01:32:12.120Z,5.01
2022-11-03T01:34:40.443Z,4.98
2022-11-03T01:37:09.088Z,4.97
2022-11-03T01:39:37.401Z,4.90
2022-11-03T01:42:06.793Z,4.90
2022-11-03T01:44:37.431Z,4.86
2022-11-03T01:47:28.041Z,4.84
2022-11-03T01:50:02.068Z,4.83
2022-11-03T01:52:38.238Z,4.86
2022-11-03T01:55:11.392Z,4.90
2022-11-03T01:57:45.726Z,4.94
2022-11-03T02:00:18.044Z,4.95
2022-11-03T02:02:46.755Z,4.91
2022-11-03T02:05:17.671Z,4.91
2022-11-03T02:07:53.885Z,4.88
2022-11-03T02:10:24.178Z,4.85
2022-11-03T02:12:55.457Z,4.85
2022-11-03T02:15:24.835Z,4.84
2022-11-03T02:17:56.014Z,4.84
2022-11-03T02:20:28.835Z,4.85
2022-11-03T02:23:08.592Z,4.87
2022-11-03T02:25:52.864Z,4.83
2022-11-03T02:28:23.775Z,4.80
2022-11-03T02:31:02.314Z,4.76
2022-11-03T02:33:38.875Z,4.76
2022-11-03T02:36:13.723Z,4.76
2022-11-03T02:38:50.098Z,4.74
2022-11-03T02:41:24.448Z,4.76
2022-11-03T02:43:56.452Z,4.72
2022-11-03T02:46:26.881Z,4.72
2022-11-03T02:48:57.513Z,4.75
2022-11-03T02:51:26.964Z,4.74
2022-11-03T02:54:07.576Z,4.72
2022-11-03T02:56:41.714Z,4.70
2022-11-03T02:59:14.384Z,4.72
2022-11-03T03:01:50.915Z,4.74
2022-11-03T03:04:28.155Z,4.78
2022-11-03T03:07:02.898Z,4.76
2022-11-03T03:09:36.066Z,4.73
2022-11-03T03:12:07.594Z,4.71
2022-11-03T03:14:41.257Z,4.70
2022-11-03T03:17:15.540Z,4.70
2022-11-03T03:19:51.151Z,4.68
2022-11-03T03:22:29.818Z,4.65
2022-11-03T03:25:04.325Z,4.65
2022-11-03T03:27:37.844Z,4.63
2022-11-03T03:30:09.092Z,4.63
2022-11-03T03:32:40.709Z,4.60
2022-11-03T03:35:13.830Z,4.57
2022-11-03T03:37:46.309Z,4.58
2022-11-03T03:40:21.419Z,4.61
2022-11-03T03:42:54.511Z,4.59
2022-11-03T03:45:23.653Z,4.58
2022-11-03T03:47:57.281Z,4.58
2022-11-03T03:50:30.422Z,4.60
2022-11-03T03:53:01.563Z,4.59
2022-11-03T03:55:36.252Z,4.61
2022-11-03T03:58:08.171Z,4.58
2022-11-03T04:00:40.005Z,4.56
2022-11-03T04:03:19.262Z,4.56
2022-11-03T04:05:48.807Z,4.63
2022-11-03T04:08:18.174Z,4.60
2022-11-03T04:11:09.855Z,4.59
2022-11-03T04:13:56.850Z,4.55
2022-11-03T04:16:42.697Z,4.58
2022-11-03T04:19:30.449Z,4.57
2022-11-03T04:22:16.291Z,4.59
2022-11-03T04:24:45.796Z,4.57
2022-11-03T04:27:29.532Z,4.60
2022-11-03T04:30:03.354Z,4.60
2022-11-03T04:32:32.094Z,4.56
2022-11-03T04:35:00.950Z,4.55
2022-11-03T04:37:31.203Z,4.58
2022-11-03T04:40:01.960Z,4.59
2022-11-03T04:42:34.635Z,4.60
2022-11-03T04:45:23.061Z,4.66
2022-11-03T04:47:54.135Z,4.65
2022-11-03T04:50:25.740Z,4.67
2022-11-03T04:53:00.087Z,4.59
2022-11-03T04:55:29.806Z,4.53
2022-11-03T04:58:01.193Z,4.56
2022-11-03T05:00:32.103Z,4.57
2022-11-03T05:03:00.227Z,4.56
2022-11-03T05:05:28.846Z,4.57
2022-11-03T05:08:03.064Z,4.47
2022-11-03T05:10:31.221Z,4.40
2022-11-03T05:13:02.717Z,4.36
2022-11-03T05:15:36.250Z,4.31
2022-11-03T05:18:16.531Z,4.23
2022-11-03T05:20:49.043Z,4.19
2022-11-03T05:23:17.889Z,4.16
2022-11-03T05:25:48.610Z,4.18
2022-11-03T05:28:22.719Z,4.17
2022-11-03T05:30:54.404Z,4.13
2022-11-03T05:33:28.716Z,4.13
2022-11-03T05:35:59.824Z,4.14
2022-11-03T05:38:31.544Z,4.12
2022-11-03T05:41:01.032Z,4.12
2022-11-03T05:43:30.303Z,4.11
2022-11-03T05:46:04.308Z,4.11
2022-11-03T05:48:36.616Z,4.13
2022-11-03T05:51:18.937Z,4.14
2022-11-03T05:53:50.144Z,4.13
2022-11-03T05:56:21.087Z,4.14
2022-11-03T05:58:52.353Z,4.12
2022-11-03T06:01:27.397Z,4.12
2022-11-03T06:03:56.143Z,4.19
2022-11-03T06:06:32.433Z,4.21
2022-11-03T06:09:04.149Z,4.23
2022-11-03T06:11:38.287Z,4.21
2022-11-03T06:14:19.879Z,4.19
2022-11-03T06:16:55.866Z,4.21
2022-11-03T06:19:28.007Z,4.23
2022-11-03T06:22:00.278Z,4.21
2022-11-03T06:24:33.177Z,4.16
2022-11-03T06:27:01.348Z,4.15
2022-11-03T06:29:33.623Z,4.17
2022-11-03T06:32:03.447Z,4.28
2022-11-03T06:34:39.957Z,4.46
2022-11-03T06:37:18.677Z,4.51
2022-11-03T06:39:48.037Z,4.57
2022-11-03T06:42:19.566Z,4.57
2022-11-03T06:44:49.862Z,4.63
2022-11-03T06:47:24.765Z,4.68
2022-11-03T06:49:55.325Z,4.78
2022-11-03T06:52:30.172Z,4.88
2022-11-03T06:55:21.755Z,5.00
2022-11-03T06:57:52.610Z,5.14
2022-11-03T07:00:41.092Z,5.27
2022-11-03T07:03:18.242Z,5.39
2022-11-03T07:05:46.322Z,5.49
2022-11-03T07:08:22.383Z,5.57
2022-11-03T07:10:52.235Z,5.67
2022-11-03T07:13:25.172Z,5.72
2022-11-03T07:15:54.909Z,5.85
2022-11-03T07:18:28.741Z,5.89
2022-11-03T07:20:58.176Z,6.00
2022-11-03T07:23:29.999Z,6.08
2022-11-03T07:26:00.730Z,6.17
2022-11-03T07:28:36.539Z,6.24
2022-11-03T07:31:16.416Z,6.28
2022-11-03T07:33:47.052Z,6.43
2022-11-03T07:36:20.852Z,6.57
2022-11-03T07:38:52.536Z,6.72
2022-11-03T07:41:28.222Z,6.88
2022-11-03T07:44:03.229Z,7.02
2022-11-03T07:46:31.984Z,7.15
2022-11-03T07:49:04.242Z,7.28
2022-11-03T07:51:34.372Z,7.42
2022-11-03T07:54:05.372Z,7.56
2022-11-03T07:56:36.771Z,7.64
2022-11-03T07:59:16.262Z,7.82
2022-11-03T08:01:48.446Z,7.98
2022-11-03T08:04:23.160Z,8.08
2022-11-03T08:06:51.585Z,8.19
2022-11-03T08:09:20.204Z,8.29
2022-11-03T08:11:50.113Z,8.43
2022-11-03T08:14:19.177Z,8.60
2022-11-03T08:16:47.452Z,8.77
2022-11-03T08:19:15.817Z,8.69
2022-11-03T08:21:45.474Z,8.64
2022-11-03T08:24:16.070Z,8.75
2022-11-03T08:26:44.303Z,8.64
2022-11-03T08:29:13.016Z,8.60
2022-11-03T08:31:41.318Z,8.66
2022-11-03T08:34:09.675Z,8.44
2022-11-03T08:36:38.833Z,8.29
2022-11-03T08:39:08.578Z,8.30
2022-11-03T08:41:36.916Z,8.31
2022-11-03T08:44:06.655Z,8.42
2022-11-03T08:46:35.221Z,8.47
2022-11-03T08:49:04.169Z,8.56
2022-11-03T08:51:32.660Z,8.69
2022-11-03T08:54:01.547Z,8.83
2022-11-03T08:56:32.942Z,8.83
2022-11-03T08:59:01.306Z,9.03
2022-11-03T09:01:31.285Z,8.99
2022-11-03T09:04:00.280Z,9.14
2022-11-03T09:06:28.641Z,9.16
2022-11-03T09:11:46.887Z,9.55
2022-11-03T09:14:16.151Z,9.88
2022-11-03T09:16:44.856Z,9.97
2022-11-03T09:19:13.075Z,10.15
2022-11-03T09:21:41.339Z,10.31
2022-11-03T09:24:10.563Z,10.38
2022-11-03T09:26:39.356Z,10.38
2022-11-03T09:29:11.110Z,10.64
2022-11-03T09:31:39.413Z,10.84
2022-11-03T09:34:08.026Z,10.84
2022-11-03T09:36:36.351Z,10.94
2022-11-03T09:39:05.381Z,11.12
2022-11-03T09:41:57.169Z,11.22
2022-11-03T09:44:24.345Z,11.25
2022-11-03T09:46:58.054Z,11.27
2022-11-03T09:49:32.051Z,11.33
2022-11-03T09:52:05.079Z,11.55
2022-11-03T09:54:33.826Z,11.66
2022-11-03T09:57:14.203Z,11.69
2022-11-03T09:59:50.273Z,11.84
2022-11-03T10:02:24.737Z,11.79
2022-11-03T10:04:54.780Z,11.47
2022-11-03T10:07:23.932Z,11.21
2022-11-03T10:09:55.667Z,11.25
2022-11-03T10:12:27.440Z,11.53
2022-11-03T10:14:57.361Z,11.60
2022-11-03T10:17:29.506Z,11.53
2022-11-03T10:19:59.224Z,11.61
2022-11-03T10:22:27.541Z,11.78
2022-11-03T10:25:26.516Z,12.21
2022-11-03T10:28:14.885Z,12.19
2022-11-03T10:31:13.688Z,12.55
2022-11-03T10:33:51.980Z,12.65
2022-11-03T10:36:25.867Z,12.61
2022-11-03T10:39:26.322Z,12.76
2022-11-03T10:42:02.130Z,12.92
2022-11-03T10:44:31.656Z,12.86
2022-11-03T10:47:03.235Z,13.29
2022-11-03T10:49:33.861Z,13.08
2022-11-03T10:52:21.729Z,13.02
2022-11-03T10:54:51.527Z,13.11
2022-11-03T10:57:21.441Z,13.10
2022-11-03T10:59:51.692Z,12.95
2022-11-03T11:02:24.121Z,13.08
2022-11-03T11:04:58.940Z,13.11
2022-11-03T11:07:33.776Z,13.02
2022-11-03T11:10:08.833Z,13.00
2022-11-03T11:12:38.451Z,12.90
2022-11-03T11:15:42.092Z,12.84
2022-11-03T11:18:51.800Z,13.05
2022-11-03T11:22:00.309Z,13.05
2022-11-03T11:24:59.552Z,12.96
2022-11-03T11:28:07.453Z,13.16
2022-11-03T11:31:04.394Z,13.42
2022-11-03T11:33:36.762Z,13.41
2022-11-03T11:36:22.606Z,13.33
2022-11-03T11:39:01.755Z,13.19
2022-11-03T11:42:11.299Z,13.34
2022-11-03T11:45:06.772Z,13.34
2022-11-03T11:47:49.149Z,13.39
2022-11-03T11:50:31.405Z,13.34
2022-11-03T11:53:26.293Z,13.46
2022-11-03T11:56:01.696Z,13.07
2022-11-03T11:58:38.457Z,12.93
2022-11-03T12:01:28.115Z,13.02
2022-11-03T12:04:01.383Z,13.00
2022-11-03T12:06:36.709Z,12.80
2022-11-03T12:09:07.700Z,12.82
2022-11-03T12:11:46.991Z,12.61
2022-11-03T12:14:24.649Z,12.56
2022-11-03T12:16:53.219Z,12.50
2022-11-03T12:19:41.227Z,12.54
2022-11-03T12:22:13.124Z,12.34
2022-11-03T12:24:50.564Z,12.35
2022-11-03T12:27:36.001Z,12.32
2022-11-03T12:30:08.929Z,12.28
2022-11-03T12:32:40.376Z,12.36
2022-11-03T12:35:11.655Z,12.40
2022-11-03T12:37:42.242Z,12.37
2022-11-03T12:40:14.275Z,12.56
2022-11-03T12:42:44.202Z,12.84
2022-11-03T12:45:14.480Z,12.97
2022-11-03T12:47:47.565Z,12.92
2022-11-03T12:50:16.564Z,13.07
2022-11-03T12:52:47.169Z,13.02
2022-11-03T12:55:17.034Z,13.07
2022-11-03T12:57:46.171Z,13.18
2022-11-03T13:00:17.755Z,13.09
2022-11-03T13:02:46.835Z,13.16
2022-11-03T13:05:15.828Z,13.31
2022-11-03T13:07:50.894Z,13.27
2022-11-03T13:10:19.512Z,13.37
2022-11-03T13:12:50.173Z,13.12
2022-11-03T13:15:20.393Z,13.37
2022-11-03T13:20:38.047Z,13.20
2022-11-03T13:23:08.282Z,13.12
2022-11-03T13:25:37.107Z,13.03
2022-11-03T13:28:10.473Z,12.89
2022-11-03T13:30:41.260Z,12.71
2022-11-03T13:33:10.412Z,12.61
2022-11-03T13:35:39.776Z,12.50
2022-11-03T13:38:09.438Z,12.45
2022-11-03T13:43:26.616Z,12.36
2022-11-03T13:45:55.034Z,12.37
2022-11-03T13:51:15.078Z,12.23
2022-11-03T13:59:25.235Z,12.08
2022-11-03T14:04:43.760Z,11.94
2022-11-03T14:07:13.684Z,11.98
2022-11-03T14:09:45.544Z,11.98
2022-11-03T14:12:32.866Z,11.92
2022-11-03T14:15:04.302Z,11.85
2022-11-03T14:17:33.324Z,11.79
2022-11-03T14:20:04.491Z,11.79
2022-11-03T14:22:36.378Z,11.76
2022-11-03T14:25:08.899Z,11.74
2022-11-03T14:27:37.227Z,11.71
2022-11-03T14:30:06.445Z,11.68
2022-11-03T14:32:36.160Z,11.71
2022-11-03T14:35:05.709Z,11.73
2022-11-03T14:37:34.145Z,11.71
2022-11-03T14:40:07.629Z,11.70
2022-11-03T14:42:36.462Z,11.72
2022-11-03T14:45:06.344Z,11.72
2022-11-03T14:47:35.080Z,11.74
2022-11-03T14:50:03.403Z,11.75
2022-11-03T14:52:31.816Z,11.72
2022-11-03T14:55:00.242Z,11.74
2022-11-03T14:57:29.927Z,11.71
2022-11-03T14:59:58.266Z,11.70
2022-11-03T15:02:28.217Z,11.70
2022-11-03T15:04:56.708Z,11.69
2022-11-03T15:07:27.443Z,11.67
2022-11-03T15:09:56.155Z,11.65
2022-11-03T15:12:26.307Z,11.63
2022-11-03T15:14:56.068Z,11.66
2022-11-03T15:17:24.108Z,11.68
2022-11-03T15:19:52.446Z,11.79
2022-11-03T15:22:20.898Z,11.67
2022-11-03T15:27:37.754Z,11.49
2022-11-03T15:30:12.267Z,11.46
2022-11-03T15:32:40.838Z,11.40
2022-11-03T15:35:11.199Z,11.31
2022-11-03T15:37:42.480Z,11.25
2022-11-03T15:40:13.448Z,11.19
2022-11-03T15:42:42.320Z,11.06
2022-11-03T15:45:15.167Z,11.00
2022-11-03T15:47:44.340Z,10.96
2022-11-03T15:50:13.933Z,10.94
2022-11-03T15:52:42.927Z,10.90
2022-11-03T15:55:12.997Z,10.83
2022-11-03T15:57:41.722Z,10.81
2022-11-03T16:00:15.372Z,10.80
2022-11-03T16:02:44.494Z,10.78
2022-11-03T16:05:12.830Z,10.90
2022-11-03T16:07:42.341Z,10.85
2022-11-03T16:10:13.132Z,10.81
2022-11-03T16:12:43.170Z,10.81
2022-11-03T16:15:13.850Z,10.92
2022-11-03T16:17:45.648Z,10.92
2022-11-03T16:20:14.264Z,10.85
2022-11-03T16:22:45.041Z,10.87
2022-11-03T16:25:16.639Z,10.84
2022-11-03T16:27:47.325Z,10.82
2022-11-03T16:30:17.322Z,10.75
2022-11-03T16:32:45.919Z,10.73
2022-11-03T16:35:16.481Z,10.69
2022-11-03T16:37:44.909Z,10.61
2022-11-03T16:40:18.987Z,10.62
2022-11-03T16:42:48.677Z,10.65
2022-11-03T16:45:20.611Z,10.68
2022-11-03T16:47:50.787Z,10.66
2022-11-03T16:50:20.732Z,10.64
2022-11-03T16:52:49.276Z,10.64
2022-11-03T16:55:19.765Z,10.64
2022-11-03T16:57:48.700Z,10.62
2022-11-03T17:00:20.889Z,10.62
2022-11-03T17:02:49.358Z,10.58
2022-11-03T17:05:20.326Z,10.53
2022-11-03T17:07:53.690Z,10.48
2022-11-03T17:10:22.372Z,10.48
2022-11-03T17:12:51.103Z,10.44
2022-11-03T17:15:21.286Z,10.43
2022-11-03T17:17:49.910Z,10.39
2022-11-03T17:20:19.026Z,10.37
2022-11-03T17:22:48.910Z,10.39
2022-11-03T17:25:17.454Z,10.40
2022-11-03T17:27:50.505Z,10.43
2022-11-03T17:30:22.318Z,10.43
2022-11-03T17:32:53.418Z,10.41
2022-11-03T17:35:26.413Z,10.43
2022-11-03T17:37:56.447Z,10.39
2022-11-03T17:40:26.982Z,10.39
2022-11-03T17:42:55.336Z,10.36
2022-11-03T17:45:26.237Z,10.33
2022-11-03T17:47:55.475Z,10.31
2022-11-03T17:50:27.532Z,10.29
2022-11-03T17:52:56.605Z,10.27
2022-11-03T17:55:29.073Z,10.27
2022-11-03T17:58:00.228Z,10.26
2022-11-03T18:00:30.889Z,10.24
2022-11-03T18:02:59.233Z,10.24
2022-11-03T18:05:30.179Z,10.25
2022-11-03T18:07:59.913Z,10.27
2022-11-03T18:10:31.578Z,10.27
2022-11-03T18:13:18.885Z,10.26
2022-11-03T18:15:50.867Z,10.28
2022-11-03T18:18:26.170Z,10.31
2022-11-03T18:20:55.501Z,10.37
2022-11-03T18:23:25.704Z,10.40
2022-11-03T18:25:55.358Z,10.44
2022-11-03T18:28:24.118Z,10.52
2022-11-03T18:30:55.572Z,10.57
2022-11-03T18:33:27.206Z,10.58
2022-11-03T18:35:55.738Z,10.57
2022-11-03T18:38:26.323Z,10.57
2022-11-03T18:40:54.738Z,10.56
2022-11-03T18:43:24.875Z,10.56
2022-11-03T18:45:56.143Z,10.54
2022-11-03T18:48:26.799Z,10.52
2022-11-03T18:50:57.575Z,10.51
2022-11-03T18:53:27.545Z,10.46
2022-11-03T18:56:01.147Z,10.43
2022-11-03T18:58:29.950Z,10.41
2022-11-03T19:01:00.261Z,10.39
2022-11-03T19:03:28.983Z,10.40
2022-11-03T19:05:57.938Z,10.39
2022-11-03T19:08:30.221Z,10.42
2022-11-03T19:11:03.527Z,10.39
2022-11-03T19:13:36.642Z,10.38
2022-11-03T19:16:16.614Z,10.36
2022-11-03T19:18:45.774Z,10.35
2022-11-03T19:21:15.528Z,10.36
2022-11-03T19:23:47.850Z,10.37
2022-11-03T19:26:22.016Z,10.39
2022-11-03T19:28:52.903Z,10.40
2022-11-03T19:31:26.541Z,10.42
2022-11-03T19:33:57.308Z,10.45
2022-11-03T19:36:27.106Z,10.44
2022-11-03T19:38:56.169Z,10.43
2022-11-03T19:41:43.835Z,10.44
2022-11-03T19:44:13.267Z,10.43
2022-11-03T19:46:43.254Z,10.41
2022-11-03T19:49:15.117Z,10.40
2022-11-03T19:51:43.929Z,10.39
2022-11-03T19:54:17.031Z,10.41
2022-11-03T19:56:46.583Z,10.43
2022-11-03T19:59:17.681Z,10.41
2022-11-03T20:01:47.374Z,10.45
2022-11-03T20:04:15.608Z,10.47
2022-11-03T20:06:46.479Z,10.47
2022-11-03T20:09:18.712Z,10.47
2022-11-03T20:11:47.044Z,10.49
2022-11-03T20:14:19.435Z,10.49
2022-11-03T20:16:49.234Z,10.50
2022-11-03T20:19:17.873Z,10.53
2022-11-03T20:21:48.728Z,10.52
2022-11-03T20:24:19.596Z,10.53
2022-11-03T20:26:48.727Z,10.52
2022-11-03T20:29:17.815Z,10.63
2022-11-03T20:31:47.184Z,10.64
2022-11-03T20:34:18.523Z,10.69
2022-11-03T20:36:47.995Z,10.75
2022-11-03T20:39:19.116Z,10.85
2022-11-03T20:41:50.725Z,10.85
2022-11-03T20:44:19.633Z,10.85
2022-11-03T20:46:50.519Z,10.91
2022-11-03T20:49:22.173Z,10.95
2022-11-03T20:51:52.164Z,11.03
2022-11-03T20:54:22.891Z,10.97
2022-11-03T20:56:51.185Z,11.03
2022-11-03T20:59:23.295Z,11.04
2022-11-03T21:01:52.202Z,11.03
2022-11-03T21:04:22.338Z,11.07
2022-11-03T21:06:51.280Z,11.15
2022-11-03T21:09:20.616Z,11.03
2022-11-03T21:11:49.338Z,10.99
2022-11-03T21:14:24.736Z,10.98
2022-11-03T21:17:10.977Z,10.97
2022-11-03T21:19:58.565Z,11.02
2022-11-03T21:25:23.706Z,11.02
2022-11-03T21:27:53.433Z,11.02
2022-11-03T21:30:23.138Z,10.96
2022-11-03T21:32:51.516Z,11.01
2022-11-03T21:35:23.540Z,11.01
2022-11-03T21:37:51.705Z,11.02
2022-11-03T21:40:21.765Z,11.05
2022-11-03T21:43:07.812Z,11.11
2022-11-03T21:45:36.194Z,11.10
2022-11-03T21:48:23.739Z,11.03
2022-11-03T21:50:54.610Z,10.92
2022-11-03T21:53:22.773Z,10.93
2022-11-03T21:55:51.016Z,10.79
2022-11-03T21:58:19.139Z,10.85
2022-11-03T22:00:47.678Z,10.82
2022-11-03T22:03:16.087Z,10.88
2022-11-03T22:05:44.380Z,10.90
2022-11-03T22:08:14.106Z,10.85
2022-11-03T22:10:42.336Z,11.01
2022-11-03T22:13:12.429Z,10.89
2022-11-03T22:15:58.134Z,10.95
2022-11-03T22:18:27.426Z,10.91
2022-11-03T22:21:16.346Z,10.89
2022-11-03T22:24:03.171Z,10.87
2022-11-03T22:26:49.058Z,10.84
2022-11-03T22:29:34.726Z,10.84
2022-11-03T22:32:03.816Z,10.80
2022-11-03T22:34:49.989Z,10.72
2022-11-03T22:37:21.073Z,10.71
2022-11-03T22:40:08.806Z,10.67
2022-11-03T22:42:54.467Z,10.71
2022-11-03T22:45:40.320Z,10.67
2022-11-03T22:48:09.629Z,10.65
2022-11-03T22:50:38.547Z,10.60
2022-11-03T22:53:22.000Z,10.63
2022-11-03T22:55:55.554Z,10.66
2022-11-03T22:58:29.344Z,10.63
2022-11-03T23:00:58.928Z,10.58
2022-11-03T23:03:31.292Z,10.58
2022-11-03T23:06:01.786Z,10.64
2022-11-03T23:08:33.168Z,10.55
2022-11-03T23:11:08.584Z,10.52
2022-11-03T23:13:37.739Z,10.49
2022-11-03T23:16:14.080Z,10.46
2022-11-03T23:19:00.512Z,10.40
2022-11-03T23:21:29.914Z,10.39
2022-11-03T23:24:16.006Z,10.39
2022-11-03T23:26:46.742Z,10.33
2022-11-03T23:29:16.038Z,10.27
2022-11-03T23:31:46.431Z,10.24
2022-11-03T23:34:17.393Z,10.27
2022-11-03T23:36:46.076Z,10.29
2022-11-03T23:39:15.649Z,10.31
2022-11-03T23:41:45.780Z,10.28
2022-11-03T23:44:15.983Z,10.29
2022-11-03T23:47:03.048Z,10.26
2022-11-03T23:49:31.710Z,10.25
2022-11-03T23:52:00.185Z,10.25
2022-11-03T23:54:28.534Z,10.27
2022-11-03T23:57:15.745Z,10.25
